in

GO AROUND TAP Airbus A320 NEO at Madeira Airport

TAP Air Portugal Airbus A320NEO Go Around at Madeira Airport this morning. The wind was blowing quite hard on this Monday morning, some pilots reported windshear on short final and the TAP flight inbound from Lisbon performed a go-around, my first one in the last 12 months in a video!!

METAR: LPMA 071030Z 03021G31KT 9999 FEW016 22/14 Q1021

Visit our merchandising shop at https://madeiraspotting.com/shop/ Items are sent from Madeira Island to you!

#aviation #airport #tap

Date: 07.06.2021 

Hope you like the video!

00:00 Intro

00:05 TAP Air Portugal flight TP1697 from Lisbon – Airbus A320-251N – CS-TVH – Go Around

Camera: Panasonic X1500

What do you think?

Written by Pedro Medeiros

Comments

Deixe uma resposta

O seu endereço de email não será publicado. Campos obrigatórios marcados com *

GIPHY App Key not set. Please check settings

    Loading…

    0

    IBERIA IS BACK Mitsubishi CRJ 1000 at Madeira Airport

    STUNNING FALCON 50 LOW PASS Portugal Air Force at Madeira Airport